Time;durP1;ratioP1;P1;durP2;ratioP2;P2;SDS_P1;SDS_P2;PMS_P1;PMS_P2;Temp;Humidity;BMP_temperature;BMP_pressure;BME280_temperature;BME280_humidity;BME280_pressure;Samples;Min_cycle;Max_cycle;Signal;HPM_P1;HPM_P2
2023/04/14 00:01:39;;;;;;;1.60;1.20;;;10.30;99.90;;;;;;4975361;28;20085;-96
2023/04/14 00:04:05;;;;;;;3.53;1.20;;;10.20;99.90;;;;;;4977062;28;20042;-96
2023/04/14 00:06:31;;;;;;;5.45;1.50;;;10.20;99.90;;;;;;4975344;28;20464;-96
2023/04/14 00:08:57;;;;;;;3.00;1.38;;;10.20;99.90;;;;;;4976314;28;20035;-96
2023/04/14 00:11:23;;;;;;;3.20;1.27;;;10.20;99.90;;;;;;4976656;28;20027;-96
2023/04/14 00:13:49;;;;;;;1.75;1.08;;;10.30;99.90;;;;;;4974650;28;20050;-96
2023/04/14 00:16:15;;;;;;;2.10;1.33;;;10.30;99.90;;;;;;4975433;28;20062;-96
2023/04/14 00:18:40;;;;;;;2.15;1.17;;;10.30;99.90;;;;;;4974998;28;20030;-96
2023/04/14 00:21:06;;;;;;;1.10;0.98;;;10.30;99.90;;;;;;4975163;28;20027;-95
2023/04/14 00:23:34;;;;;;;2.45;1.13;;;10.20;99.90;;;;;;4976268;28;20023;-96
2023/04/14 00:26:00;;;;;;;3.03;1.33;;;10.20;99.90;;;;;;4976284;28;20062;-96
2023/04/14 00:28:26;;;;;;;1.67;1.20;;;10.30;99.90;;;;;;4976464;28;20037;-96
2023/04/14 00:30:52;;;;;;;2.83;1.13;;;10.30;99.90;;;;;;4975984;28;20038;-96
2023/04/14 00:33:17;;;;;;;1.35;1.10;;;10.10;99.90;;;;;;4974694;28;20023;-96
2023/04/14 00:35:43;;;;;;;1.75;1.15;;;10.20;99.90;;;;;;4975874;28;20406;-95
2023/04/14 00:38:09;;;;;;;1.80;1.10;;;10.20;99.90;;;;;;4975103;28;20030;-96
2023/04/14 00:40:38;;;;;;;2.35;1.10;;;10.40;99.90;;;;;;4976120;28;20019;-96
2023/04/14 00:43:03;;;;;;;2.42;1.10;;;10.50;99.90;;;;;;4974881;28;20061;-96
2023/04/14 00:45:29;;;;;;;2.65;1.10;;;10.50;99.90;;;;;;4974706;28;20062;-96
2023/04/14 00:47:58;;;;;;;2.67;1.05;;;10.10;99.90;;;;;;4974472;28;20041;-96
2023/04/14 00:50:23;;;;;;;2.08;1.20;;;10.00;99.90;;;;;;4976314;28;20027;-96
2023/04/14 00:52:51;;;;;;;1.88;0.98;;;10.00;99.90;;;;;;4975291;28;20023;-96
2023/04/14 00:55:20;;;;;;;1.75;0.90;;;10.00;99.90;;;;;;4976052;28;20042;-96
2023/04/14 00:57:49;;;;;;;1.73;1.05;;;10.00;99.90;;;;;;4974969;28;20027;-95
2023/04/14 01:00:15;;;;;;;2.55;1.27;;;10.20;99.90;;;;;;4974496;28;20486;-96
2023/04/14 01:02:41;;;;;;;2.72;1.02;;;10.00;99.90;;;;;;4974480;28;20023;-96
2023/04/14 01:05:07;;;;;;;1.70;1.08;;;9.90;99.90;;;;;;4975845;28;20030;-96
2023/04/14 01:07:36;;;;;;;1.90;0.88;;;9.80;99.90;;;;;;4975829;28;20038;-96
2023/04/14 01:10:02;;;;;;;1.13;0.80;;;9.80;99.90;;;;;;4974853;28;20047;-96
2023/04/14 01:12:54;;;;;;;2.72;0.82;;;9.60;99.90;;;;;;4975647;28;20038;-96
2023/04/14 01:15:37;;;;;;;1.35;0.90;;;9.60;99.90;;;;;;4975293;28;20023;-96
2023/04/14 01:18:30;;;;;;;2.60;1.30;;;9.80;99.90;;;;;;4974697;28;20022;-96
2023/04/14 01:21:04;;;;;;;1.42;0.70;;;9.70;99.90;;;;;;4974684;28;20027;-96
2023/04/14 01:23:35;;;;;;;1.30;0.90;;;9.80;99.90;;;;;;4976045;28;20030;-96
2023/04/14 01:26:16;;;;;;;1.33;1.00;;;9.70;99.90;;;;;;4979309;28;20055;-95
2023/04/14 01:29:03;;;;;;;2.63;0.90;;;9.70;99.90;;;;;;4978682;28;20022;-96
2023/04/14 01:31:35;;;;;;;1.40;1.20;;;9.70;99.90;;;;;;4978001;28;20041;-96
2023/04/14 01:34:35;;;;;;;2.72;0.90;;;9.70;99.90;;;;;;4977986;28;20061;-96
2023/04/14 01:37:13;;;;;;;1.65;1.05;;;9.70;99.90;;;;;;4979253;28;20034;-96
2023/04/14 01:39:44;;;;;;;1.88;1.15;;;9.80;99.90;;;;;;4979121;28;20030;-96
2023/04/14 01:42:15;;;;;;;1.67;0.93;;;9.80;99.90;;;;;;4958796;29;20031;-95
2023/04/14 01:44:43;;;;;;;2.30;0.95;;;10.20;99.90;;;;;;4958375;29;20035;-96
2023/04/14 01:47:12;;;;;;;1.45;0.93;;;9.70;99.90;;;;;;4959731;29;20031;-96
2023/04/14 01:49:39;;;;;;;1.42;0.90;;;9.70;99.90;;;;;;4959993;29;20054;-96
2023/04/14 01:52:09;;;;;;;0.80;0.77;;;9.60;99.90;;;;;;4959718;29;20038;-95
2023/04/14 01:54:37;;;;;;;1.00;0.90;;;9.70;99.90;;;;;;4959829;29;20039;-95
2023/04/14 01:57:04;;;;;;;1.67;1.10;;;9.70;99.90;;;;;;4959404;29;20027;-96
2023/04/14 01:59:32;;;;;;;1.38;0.90;;;9.60;99.90;;;;;;4957927;29;20027;-96
2023/04/14 02:02:00;;;;;;;0.80;0.80;;;9.80;99.90;;;;;;4959367;29;20047;-96
2023/04/14 02:04:28;;;;;;;2.20;1.00;;;9.70;99.90;;;;;;4959327;28;20122;-96
2023/04/14 02:06:57;;;;;;;1.25;0.70;;;9.70;99.90;;;;;;4958368;29;20038;-95
2023/04/14 02:09:25;;;;;;;1.58;0.90;;;9.80;99.90;;;;;;4963971;28;20027;-96
2023/04/14 02:11:53;;;;;;;1.05;0.70;;;9.70;99.90;;;;;;4977444;28;20065;-96
2023/04/14 02:14:20;;;;;;;2.50;0.95;;;9.80;99.90;;;;;;4976899;28;20054;-96
2023/04/14 02:16:48;;;;;;;1.00;0.80;;;9.70;99.90;;;;;;4977448;28;20077;-96
2023/04/14 02:19:17;;;;;;;1.83;0.90;;;9.60;99.90;;;;;;4978514;28;20034;-96
2023/04/14 02:21:43;;;;;;;1.80;0.90;;;9.70;99.90;;;;;;4977951;28;20050;-96
2023/04/14 02:24:09;;;;;;;0.95;0.90;;;9.60;99.90;;;;;;4977852;28;20181;-96
2023/04/14 02:26:42;;;;;;;1.60;0.82;;;9.50;99.90;;;;;;4977548;28;20403;-96
2023/04/14 02:29:19;;;;;;;0.88;0.80;;;9.70;99.90;;;;;;4977221;28;20027;-96
2023/04/14 02:31:50;;;;;;;2.60;1.10;;;9.60;99.90;;;;;;4977128;28;20492;-95
2023/04/14 02:34:22;;;;;;;0.93;0.90;;;9.60;99.90;;;;;;4977987;28;20483;-96
2023/04/14 02:36:52;;;;;;;0.90;0.80;;;9.50;99.90;;;;;;4977813;28;20050;-96
2023/04/14 02:39:30;;;;;;;1.35;0.80;;;9.50;99.90;;;;;;4978248;28;20058;-96
2023/04/14 02:42:01;;;;;;;1.00;0.90;;;9.70;99.90;;;;;;4988483;28;20374;-96
2023/04/14 02:44:33;;;;;;;1.80;0.70;;;9.50;99.90;;;;;;4997493;28;20030;-96
2023/04/14 02:47:14;;;;;;;1.35;0.75;;;9.50;99.90;;;;;;4996133;28;20046;-96
2023/04/14 02:49:46;;;;;;;1.50;0.75;;;9.90;99.90;;;;;;4996301;28;20081;-95
2023/04/14 02:52:16;;;;;;;1.02;0.80;;;10.10;99.90;;;;;;4997548;28;20034;-96
2023/04/14 02:54:43;;;;;;;1.13;0.80;;;9.60;99.90;;;;;;4996146;28;20058;-96
2023/04/14 02:57:13;;;;;;;1.42;0.80;;;9.60;99.90;;;;;;4995720;28;20085;-96
2023/04/14 02:59:40;;;;;;;1.70;0.65;;;9.60;99.90;;;;;;4995877;28;20058;-96
2023/04/14 03:02:10;;;;;;;1.10;0.80;;;9.70;99.90;;;;;;4996491;28;20089;-96
2023/04/14 03:04:37;;;;;;;0.80;0.63;;;9.70;99.90;;;;;;4996094;28;20069;-95
2023/04/14 03:07:07;;;;;;;2.15;0.82;;;9.70;99.90;;;;;;4997324;28;20553;-96
2023/04/14 03:09:34;;;;;;;0.60;0.60;;;9.80;99.90;;;;;;4986843;28;20041;-96
2023/04/14 03:12:05;;;;;;;1.25;0.90;;;9.80;99.90;;;;;;4957001;28;20031;-96
2023/04/14 03:14:36;;;;;;;0.75;0.70;;;9.80;99.90;;;;;;4956759;28;20054;-95
2023/04/14 03:17:03;;;;;;;1.10;1.00;;;9.70;99.90;;;;;;4957048;29;20099;-96
2023/04/14 03:19:29;;;;;;;1.58;0.82;;;9.70;99.90;;;;;;4958064;28;20023;-96
2023/04/14 03:21:58;;;;;;;0.82;0.70;;;9.60;99.90;;;;;;4958119;28;20074;-96
2023/04/14 03:24:29;;;;;;;0.82;0.80;;;9.60;99.90;;;;;;4958174;28;20127;-96
2023/04/14 03:27:04;;;;;;;1.58;0.80;;;9.40;99.90;;;;;;4957496;28;20519;-96
2023/04/14 03:29:37;;;;;;;2.42;0.85;;;9.70;99.90;;;;;;4956837;28;20054;-96
2023/04/14 03:32:08;;;;;;;1.10;0.77;;;9.50;99.90;;;;;;4956966;28;20099;-96
2023/04/14 03:34:39;;;;;;;0.88;0.60;;;9.50;99.90;;;;;;4957850;28;20492;-96
2023/04/14 03:37:08;;;;;;;0.60;0.60;;;10.00;99.90;;;;;;4956684;28;20062;-96
2023/04/14 03:39:39;;;;;;;1.02;0.70;;;9.80;99.90;;;;;;4957669;28;20023;-95
2023/04/14 03:42:09;;;;;;;0.95;0.70;;;9.50;99.90;;;;;;4957634;28;20027;-96
2023/04/14 03:44:37;;;;;;;0.82;0.80;;;9.50;99.90;;;;;;4956630;28;20035;-96
2023/04/14 03:47:09;;;;;;;0.75;0.70;;;9.50;99.90;;;;;;4973464;28;20240;-96
2023/04/14 03:49:37;;;;;;;1.10;1.00;;;9.50;99.90;;;;;;4975301;28;20040;-96
2023/04/14 03:52:10;;;;;;;0.80;0.80;;;9.50;99.90;;;;;;4975692;28;20054;-96
2023/04/14 03:54:38;;;;;;;1.95;0.90;;;9.40;99.90;;;;;;4975573;28;20122;-96
2023/04/14 03:57:06;;;;;;;1.30;0.98;;;9.40;99.90;;;;;;4975971;28;20034;-96
2023/04/14 03:59:34;;;;;;;1.95;1.55;;;9.40;99.90;;;;;;4976873;28;20026;-96
2023/04/14 04:02:01;;;;;;;2.30;1.52;;;9.50;99.90;;;;;;4976688;28;20034;-96
2023/04/14 04:04:31;;;;;;;1.33;1.10;;;9.60;99.90;;;;;;4975627;28;20049;-96
2023/04/14 04:06:58;;;;;;;2.00;0.90;;;9.80;99.90;;;;;;4975329;28;20023;-96
2023/04/14 04:09:28;;;;;;;1.77;0.80;;;9.50;99.90;;;;;;4976379;28;20101;-96
2023/04/14 04:11:58;;;;;;;1.08;0.82;;;9.40;99.90;;;;;;4976803;28;20027;-96
2023/04/14 04:14:26;;;;;;;1.17;1.00;;;9.40;99.90;;;;;;4976472;28;20106;-96
2023/04/14 04:16:53;;;;;;;1.02;0.93;;;9.40;99.90;;;;;;4976719;28;20035;-96
2023/04/14 04:19:21;;;;;;;0.70;0.70;;;9.40;99.90;;;;;;4975681;28;20058;-96
2023/04/14 04:22:00;;;;;;;1.50;0.90;;;9.40;99.90;;;;;;4976643;28;20050;-96
2023/04/14 04:24:36;;;;;;;0.77;0.70;;;9.50;99.90;;;;;;4975873;28;20039;-96
2023/04/14 04:27:03;;;;;;;1.38;0.70;;;9.50;99.90;;;;;;4976422;28;20035;-96
2023/04/14 04:29:29;;;;;;;1.00;0.75;;;9.40;99.90;;;;;;4974944;28;20027;-96
2023/04/14 04:31:59;;;;;;;0.70;0.70;;;9.30;99.90;;;;;;4976536;28;20026;-96
2023/04/14 04:34:25;;;;;;;0.90;0.63;;;9.40;99.90;;;;;;4975876;28;20054;-96
2023/04/14 04:36:52;;;;;;;1.05;0.57;;;9.30;99.90;;;;;;4977587;28;20035;-96
2023/04/14 04:39:19;;;;;;;1.50;0.93;;;9.50;99.90;;;;;;4982049;28;20042;-96
2023/04/14 04:41:48;;;;;;;2.47;1.10;;;9.40;99.90;;;;;;4982617;28;20046;-96
2023/04/14 04:47:42;;;;;;;1.20;0.90;;;9.40;99.90;;;;;;4983177;28;20046;-96
2023/04/14 04:51:06;;;;;;;2.45;0.93;;;9.20;99.90;;;;;;4957480;29;20598;-96
2023/04/14 04:54:20;;;;;;;1.63;0.80;;;9.60;99.90;;;;;;4899938;29;20074;-96
2023/04/14 04:57:11;;;;;;;0.60;0.60;;;9.00;99.90;;;;;;4894236;29;20040;-96
2023/04/14 04:59:38;;;;;;;1.30;0.90;;;9.10;99.90;;;;;;4897103;29;20037;-96
2023/04/14 05:02:12;;;;;;;0.95;0.80;;;8.90;99.90;;;;;;4897288;29;20037;-96
2023/04/14 05:04:47;;;;;;;1.40;1.27;;;8.90;99.90;;;;;;4894025;29;20045;-96
2023/04/14 05:07:13;;;;;;;1.30;1.20;;;8.90;99.90;;;;;;4893863;29;20065;-96
2023/04/14 05:09:43;;;;;;;1.65;0.90;;;8.90;99.90;;;;;;4890855;29;20072;-96
2023/04/14 05:12:10;;;;;;;1.70;1.60;;;8.90;99.90;;;;;;4882093;29;20034;-96
2023/04/14 05:14:41;;;;;;;2.63;1.88;;;8.80;99.90;;;;;;4872590;29;20038;-96
2023/04/14 05:17:08;;;;;;;1.10;1.10;;;8.80;99.90;;;;;;4871599;29;20029;-96
2023/04/14 05:19:34;;;;;;;1.00;1.00;;;8.70;99.90;;;;;;4871055;29;20041;-96
2023/04/14 05:22:06;;;;;;;1.42;1.30;;;8.80;99.90;;;;;;4870290;29;20049;-96
2023/04/14 05:24:32;;;;;;;1.70;1.60;;;8.90;99.90;;;;;;4881485;29;20104;-96
2023/04/14 05:27:00;;;;;;;1.60;1.50;;;8.90;99.90;;;;;;4896435;29;20035;-96
2023/04/14 05:29:30;;;;;;;1.50;1.08;;;8.70;99.90;;;;;;4944737;29;20031;-96
2023/04/14 05:31:57;;;;;;;1.15;1.05;;;8.90;99.90;;;;;;4929591;29;20036;-96
2023/04/14 05:34:26;;;;;;;1.30;1.20;;;8.90;99.90;;;;;;4929778;29;20044;-96
2023/04/14 05:36:53;;;;;;;1.92;1.50;;;8.90;99.90;;;;;;4929157;29;20497;-96
2023/04/14 05:39:19;;;;;;;1.90;1.60;;;8.90;99.90;;;;;;4944314;29;20485;-96
2023/04/14 05:41:45;;;;;;;1.40;1.30;;;9.00;99.90;;;;;;4928455;29;20042;-96
2023/04/14 05:44:12;;;;;;;1.10;1.00;;;9.30;99.90;;;;;;4970416;28;20035;-96
2023/04/14 05:46:38;;;;;;;1.00;0.90;;;8.70;99.90;;;;;;4982036;28;20038;-96
2023/04/14 05:49:04;;;;;;;1.20;1.10;;;9.20;99.90;;;;;;4966342;28;20029;-96
2023/04/14 05:51:31;;;;;;;1.75;1.17;;;9.20;99.90;;;;;;4965520;28;20027;-96
2023/04/14 05:53:57;;;;;;;2.03;1.20;;;9.10;99.90;;;;;;4995042;28;20105;-96
2023/04/14 05:56:23;;;;;;;2.85;1.10;;;9.20;99.90;;;;;;5002156;28;20046;-96
2023/04/14 05:58:53;;;;;;;1.40;1.10;;;9.00;99.90;;;;;;5001654;28;20050;-96
2023/04/14 06:01:19;;;;;;;2.20;1.85;;;9.10;99.90;;;;;;5001505;28;20074;-96
2023/04/14 06:03:45;;;;;;;4.20;2.08;;;9.20;99.90;;;;;;5002285;28;20022;-96
2023/04/14 06:06:11;;;;;;;2.83;1.20;;;9.50;99.90;;;;;;5000587;28;20105;-96
2023/04/14 06:08:38;;;;;;;1.20;1.10;;;9.60;99.90;;;;;;5000620;28;20038;-96
2023/04/14 06:11:04;;;;;;;3.78;1.23;;;9.70;99.90;;;;;;4999635;28;20030;-96
2023/04/14 06:13:31;;;;;;;1.63;1.10;;;9.70;99.90;;;;;;5002500;28;20034;-96
2023/04/14 06:15:58;;;;;;;5.00;1.55;;;9.40;99.90;;;;;;5002705;28;20029;-96
2023/04/14 06:18:26;;;;;;;3.15;1.20;;;9.20;99.90;;;;;;5000877;28;20034;-96
2023/04/14 06:20:52;;;;;;;2.60;1.23;;;9.30;99.90;;;;;;5001871;28;20427;-96
2023/04/14 06:23:18;;;;;;;2.05;1.15;;;9.70;99.90;;;;;;5003232;28;20034;-96
2023/04/14 06:25:44;;;;;;;3.78;1.27;;;9.70;99.90;;;;;;4999799;28;20391;-96
2023/04/14 06:28:10;;;;;;;1.50;1.40;;;9.90;99.90;;;;;;4998477;28;20030;-90
2023/04/14 06:30:35;;;;;;;1.45;1.20;;;10.10;99.90;;;;;;4995918;28;20037;-91
2023/04/14 06:33:03;;;;;;;2.35;1.08;;;9.90;99.90;;;;;;4995460;28;20022;-90
2023/04/14 06:35:33;;;;;;;2.38;1.30;;;9.90;99.90;;;;;;4997827;28;20026;-90
2023/04/14 06:38:00;;;;;;;1.58;1.40;;;10.10;99.90;;;;;;4999354;28;20041;-89
2023/04/14 06:40:26;;;;;;;1.83;1.40;;;10.40;99.90;;;;;;4995664;28;20073;-89
2023/04/14 06:42:51;;;;;;;1.45;1.20;;;10.60;99.90;;;;;;4995417;28;20054;-87
2023/04/14 06:45:17;;;;;;;1.95;1.20;;;10.60;99.90;;;;;;4975916;28;20125;-87
2023/04/14 06:47:43;;;;;;;4.78;0.98;;;10.60;99.90;;;;;;4976044;28;20396;-87
2023/04/14 06:50:09;;;;;;;2.83;1.40;;;10.40;99.90;;;;;;4974128;28;20110;-87
2023/04/14 06:52:34;;;;;;;1.60;1.20;;;10.50;99.90;;;;;;4976208;28;20042;-87
2023/04/14 06:55:00;;;;;;;4.47;0.95;;;10.30;99.90;;;;;;4974726;28;20023;-86
2023/04/14 06:57:26;;;;;;;1.33;0.90;;;10.20;99.90;;;;;;4975907;28;20054;-87
2023/04/14 06:59:51;;;;;;;1.98;1.10;;;10.30;99.90;;;;;;4974384;28;20371;-87
2023/04/14 07:02:17;;;;;;;2.85;1.17;;;10.40;99.90;;;;;;4975932;28;20398;-87
2023/04/14 07:04:43;;;;;;;1.42;0.90;;;10.30;99.90;;;;;;4973986;28;20113;-87
2023/04/14 07:07:08;;;;;;;3.00;1.00;;;10.40;99.90;;;;;;4975665;28;20027;-87
2023/04/14 07:09:34;;;;;;;1.98;0.95;;;10.40;99.90;;;;;;4974409;28;20034;-87
2023/04/14 07:12:00;;;;;;;3.08;1.17;;;10.60;99.90;;;;;;4975887;28;20025;-87
2023/04/14 07:14:26;;;;;;;1.13;1.02;;;10.50;99.90;;;;;;4973970;28;20055;-87
2023/04/14 07:16:52;;;;;;;2.47;0.95;;;10.60;99.90;;;;;;4975436;28;20101;-87
2023/04/14 07:19:18;;;;;;;2.47;1.27;;;10.80;99.90;;;;;;4973775;28;20495;-87
2023/04/14 07:21:47;;;;;;;2.80;1.10;;;10.80;99.90;;;;;;4973691;28;20027;-87
2023/04/14 07:24:13;;;;;;;1.15;1.02;;;11.10;99.90;;;;;;4975379;28;20046;-87
2023/04/14 07:26:39;;;;;;;1.88;1.30;;;11.10;99.90;;;;;;4973812;28;20089;-87
2023/04/14 07:29:05;;;;;;;1.33;1.00;;;11.00;99.90;;;;;;4975517;28;20031;-86
2023/04/14 07:31:33;;;;;;;0.82;0.82;;;11.30;99.90;;;;;;4975344;28;20055;-87
2023/04/14 07:33:59;;;;;;;2.17;0.98;;;10.90;99.90;;;;;;4974509;28;20499;-87
2023/04/14 07:36:24;;;;;;;1.27;1.15;;;10.90;99.90;;;;;;4973744;28;20023;-87
2023/04/14 07:38:50;;;;;;;2.25;1.08;;;10.90;99.90;;;;;;4974841;28;20026;-87
2023/04/14 07:41:17;;;;;;;0.80;0.80;;;11.00;99.90;;;;;;4974902;28;20030;-87
2023/04/14 07:43:42;;;;;;;1.10;0.98;;;11.20;99.90;;;;;;4973653;28;20038;-86
2023/04/14 07:46:08;;;;;;;1.60;1.15;;;11.00;99.90;;;;;;4964247;28;20039;-86
2023/04/14 07:48:35;;;;;;;2.25;0.93;;;11.20;99.90;;;;;;4973352;28;20049;-87
2023/04/14 07:51:01;;;;;;;1.85;1.27;;;11.20;99.90;;;;;;4975024;28;20026;-87
2023/04/14 07:53:27;;;;;;;1.50;1.00;;;11.10;99.90;;;;;;4974631;28;20034;-87
2023/04/14 07:55:53;;;;;;;1.10;1.00;;;10.90;99.90;;;;;;4974729;28;20034;-87
2023/04/14 07:58:18;;;;;;;1.60;1.30;;;10.90;99.90;;;;;;4974591;28;20062;-87
2023/04/14 08:00:44;;;;;;;5.15;1.40;;;11.40;99.90;;;;;;4974514;28;20051;-86
2023/04/14 08:03:12;;;;;;;1.15;1.00;;;10.90;99.90;;;;;;4973917;28;20030;-87
2023/04/14 08:05:37;;;;;;;1.10;1.00;;;11.30;99.90;;;;;;4974720;28;20491;-87
2023/04/14 08:08:03;;;;;;;1.33;0.90;;;11.40;99.90;;;;;;4973365;28;20058;-87
2023/04/14 08:10:29;;;;;;;1.05;0.95;;;11.00;99.90;;;;;;4974345;28;20035;-87
2023/04/14 08:12:54;;;;;;;1.27;0.90;;;11.10;99.90;;;;;;4973019;28;20030;-87
2023/04/14 08:15:20;;;;;;;1.00;0.90;;;10.90;99.90;;;;;;4974738;28;20041;-87
2023/04/14 08:17:46;;;;;;;1.05;0.90;;;11.10;99.90;;;;;;4972633;28;20023;-86
2023/04/14 08:20:11;;;;;;;0.73;0.60;;;11.30;99.90;;;;;;4974718;28;20030;-87
2023/04/14 08:22:37;;;;;;;7.63;3.30;;;11.10;99.90;;;;;;4973248;28;20069;-86
2023/04/14 08:25:03;;;;;;;1.02;1.00;;;11.20;99.90;;;;;;4973640;28;20122;-87
2023/04/14 08:27:30;;;;;;;2.60;1.30;;;11.10;99.90;;;;;;4974429;28;20034;-87
2023/04/14 08:29:56;;;;;;;1.17;1.08;;;11.10;99.90;;;;;;4972851;28;20566;-86
2023/04/14 08:32:21;;;;;;;1.35;1.10;;;11.30;99.90;;;;;;4972632;28;20027;-87
2023/04/14 08:34:47;;;;;;;2.42;0.90;;;11.40;99.90;;;;;;4973702;28;20034;-87
2023/04/14 08:37:12;;;;;;;1.42;1.13;;;11.50;99.90;;;;;;4974317;28;20041;-86
2023/04/14 08:39:38;;;;;;;0.80;0.77;;;11.40;99.90;;;;;;4974068;28;20027;-85
2023/04/14 08:42:04;;;;;;;1.17;0.80;;;11.40;99.90;;;;;;4974037;28;20023;-87
2023/04/14 08:44:29;;;;;;;1.00;0.90;;;12.00;99.90;;;;;;4966268;28;20130;-87
2023/04/14 08:46:55;;;;;;;1.27;0.98;;;12.00;99.90;;;;;;4968727;28;20030;-87
2023/04/14 08:49:45;;;;;;;1.80;1.05;;;12.00;99.90;;;;;;4973798;28;20031;-87
2023/04/14 08:52:11;;;;;;;1.40;1.00;;;11.80;99.90;;;;;;4973940;28;20392;-87
2023/04/14 08:54:39;;;;;;;1.33;1.00;;;12.00;99.90;;;;;;4973833;28;20023;-87
2023/04/14 08:57:07;;;;;;;3.10;1.45;;;12.20;99.90;;;;;;4974081;28;20034;-86
2023/04/14 08:59:34;;;;;;;2.47;1.50;;;12.60;99.90;;;;;;4973409;28;20033;-87
2023/04/14 09:02:00;;;;;;;1.88;1.13;;;12.70;99.90;;;;;;4973771;28;20034;-86
2023/04/14 09:04:27;;;;;;;1.88;1.10;;;12.10;99.90;;;;;;4973770;28;20027;-86
2023/04/14 09:06:55;;;;;;;1.10;1.00;;;12.30;99.90;;;;;;4973731;28;20547;-87
2023/04/14 09:09:22;;;;;;;1.35;0.95;;;12.30;99.90;;;;;;4973707;28;20046;-87
2023/04/14 09:11:48;;;;;;;0.80;0.80;;;12.50;99.90;;;;;;4973647;28;20424;-86
2023/04/14 09:14:15;;;;;;;1.30;1.20;;;12.50;99.90;;;;;;4972303;28;20023;-87
2023/04/14 09:16:40;;;;;;;1.88;0.70;;;12.50;99.90;;;;;;4973555;28;20114;-87
2023/04/14 09:19:07;;;;;;;1.02;0.82;;;12.30;99.90;;;;;;4972606;28;20444;-86
2023/04/14 09:21:33;;;;;;;1.20;1.00;;;12.30;99.90;;;;;;4972186;28;20031;-87
2023/04/14 09:23:59;;;;;;;1.55;0.80;;;12.40;99.90;;;;;;4973903;28;20077;-87
2023/04/14 09:26:26;;;;;;;1.45;0.90;;;12.50;99.90;;;;;;4973496;28;20518;-87
2023/04/14 09:28:52;;;;;;;2.35;0.80;;;13.00;99.90;;;;;;4973222;28;20042;-86
2023/04/14 09:31:19;;;;;;;1.02;0.90;;;13.00;99.90;;;;;;4972174;28;20372;-86
2023/04/14 09:33:49;;;;;;;0.90;0.70;;;13.40;99.90;;;;;;4973402;28;20027;-86
2023/04/14 09:36:22;;;;;;;2.15;1.00;;;13.40;99.90;;;;;;4973622;28;20022;-87
2023/04/14 09:38:49;;;;;;;1.02;0.80;;;13.80;99.90;;;;;;4973415;28;20508;-87
2023/04/14 09:41:24;;;;;;;0.70;0.70;;;13.40;99.90;;;;;;4973653;28;20038;-87
2023/04/14 09:43:51;;;;;;;1.00;0.80;;;13.20;99.90;;;;;;4973058;28;20566;-86
2023/04/14 09:46:17;;;;;;;2.10;0.80;;;13.50;99.90;;;;;;4966828;28;20054;-87
2023/04/14 09:48:50;;;;;;;4.50;1.05;;;13.30;99.90;;;;;;4977198;28;20047;-86
2023/04/14 09:51:16;;;;;;;1.88;0.98;;;13.30;99.90;;;;;;4977647;28;20027;-87
2023/04/14 09:53:41;;;;;;;1.33;0.80;;;13.10;99.90;;;;;;4976803;28;20034;-86
2023/04/14 09:56:09;;;;;;;1.10;0.80;;;13.30;99.90;;;;;;4977279;28;20098;-87
2023/04/14 09:58:42;;;;;;;5.95;3.92;;;13.30;99.90;;;;;;4976513;28;20035;-87
2023/04/14 10:01:13;;;;;;;0.85;0.85;;;13.30;99.90;;;;;;4976417;28;20054;-87
2023/04/14 10:03:46;;;;;;;0.85;0.80;;;13.40;99.90;;;;;;4976644;28;20019;-86
2023/04/14 10:06:22;;;;;;;0.70;0.70;;;13.80;99.90;;;;;;4976592;28;20041;-87
2023/04/14 10:08:50;;;;;;;0.70;0.70;;;14.30;99.90;;;;;;4976552;28;20031;-87
2023/04/14 10:11:31;;;;;;;1.15;0.80;;;14.40;99.90;;;;;;4976790;28;20031;-86
2023/04/14 10:14:05;;;;;;;1.30;0.50;;;14.40;99.90;;;;;;4976150;28;20097;-86
2023/04/14 10:16:31;;;;;;;0.60;0.60;;;14.60;99.90;;;;;;4976108;28;20026;-87
2023/04/14 10:18:57;;;;;;;1.60;0.70;;;14.80;99.90;;;;;;4976359;28;20399;-86
2023/04/14 10:21:23;;;;;;;0.82;0.70;;;15.10;99.90;;;;;;4976112;28;20023;-86
2023/04/14 10:23:50;;;;;;;0.55;0.55;;;15.60;99.90;;;;;;4976347;28;20030;-87
2023/04/14 10:26:16;;;;;;;1.13;0.75;;;16.00;99.90;;;;;;4974692;28;20042;-86
2023/04/14 10:28:49;;;;;;;1.13;0.73;;;15.90;99.90;;;;;;4976074;28;20034;-87
2023/04/14 10:31:35;;;;;;;1.27;0.90;;;15.20;99.90;;;;;;4976010;28;20038;-86
2023/04/14 10:34:14;;;;;;;0.63;0.63;;;14.50;99.90;;;;;;4976444;28;20065;-86
2023/04/14 10:36:41;;;;;;;2.05;0.80;;;14.20;99.90;;;;;;4976075;28;20385;-86
2023/04/14 10:39:09;;;;;;;1.45;0.73;;;14.60;99.90;;;;;;4975863;28;20058;-86
2023/04/14 10:41:49;;;;;;;1.25;0.82;;;14.30;99.90;;;;;;4974541;28;20061;-87
2023/04/14 10:44:31;;;;;;;0.90;0.77;;;14.20;99.90;;;;;;4975994;28;20030;-87
2023/04/14 10:47:00;;;;;;;1.73;0.60;;;14.50;99.90;;;;;;4971910;28;20045;-87
2023/04/14 10:49:31;;;;;;;0.70;0.70;;;14.70;99.90;;;;;;4976021;28;20033;-86
2023/04/14 10:52:02;;;;;;;0.60;0.60;;;14.50;99.90;;;;;;4975481;28;20035;-86
2023/04/14 10:54:53;;;;;;;0.43;0.43;;;14.70;99.90;;;;;;4974397;28;20019;-86
2023/04/14 10:57:28;;;;;;;0.73;0.50;;;14.80;99.90;;;;;;4974959;28;20407;-87
2023/04/14 10:59:58;;;;;;;0.65;0.50;;;15.10;99.90;;;;;;4976130;28;20109;-87
2023/04/14 11:02:28;;;;;;;0.57;0.40;;;15.50;99.90;;;;;;4975510;28;20086;-86
2023/04/14 11:05:01;;;;;;;0.68;0.50;;;15.70;99.90;;;;;;4975254;28;20031;-86
2023/04/14 11:07:29;;;;;;;1.10;0.50;;;15.60;99.90;;;;;;4975360;28;20435;-87
2023/04/14 11:10:19;;;;;;;0.40;0.40;;;15.20;99.90;;;;;;4973509;28;20034;-87
2023/04/14 11:13:01;;;;;;;0.50;0.50;;;15.20;99.90;;;;;;4971775;28;20519;-86
2023/04/14 11:15:46;;;;;;;0.63;0.50;;;15.00;99.90;;;;;;4975267;28;20078;-86
2023/04/14 11:18:20;;;;;;;0.88;0.45;;;15.10;99.90;;;;;;4975252;28;20034;-87
2023/04/14 11:20:45;;;;;;;0.55;0.45;;;15.10;99.90;;;;;;4975106;28;20037;-87
2023/04/14 11:23:13;;;;;;;0.70;0.50;;;14.90;99.90;;;;;;4975380;28;20114;-87
2023/04/14 11:25:39;;;;;;;1.00;0.50;;;14.30;99.90;;;;;;4974699;28;20120;-86
2023/04/14 11:28:05;;;;;;;1.23;0.70;;;14.10;99.90;;;;;;4973866;28;20166;-87
2023/04/14 11:30:31;;;;;;;0.95;0.60;;;14.30;99.90;;;;;;4975260;28;20030;-87
2023/04/14 11:32:57;;;;;;;0.60;0.40;;;14.10;99.90;;;;;;4975017;28;20098;-86
2023/04/14 11:35:25;;;;;;;1.00;0.40;;;13.90;99.90;;;;;;4975738;28;20387;-86
2023/04/14 11:37:58;;;;;;;0.50;0.50;;;13.90;99.90;;;;;;4974795;28;20573;-86
2023/04/14 11:40:26;;;;;;;0.60;0.60;;;13.80;99.90;;;;;;4975371;28;20042;-86
2023/04/14 11:42:56;;;;;;;1.23;0.88;;;14.00;99.90;;;;;;4974918;28;20097;-86
2023/04/14 11:45:27;;;;;;;0.57;0.43;;;14.00;99.90;;;;;;4977034;28;20048;-86
2023/04/14 11:48:04;;;;;;;3.03;0.88;;;14.00;99.90;;;;;;4976155;28;20050;-87
2023/04/14 11:50:32;;;;;;;1.35;0.70;;;14.30;99.90;;;;;;4974527;28;20031;-87
2023/04/14 11:53:01;;;;;;;2.63;2.10;;;14.60;99.90;;;;;;4974713;28;20035;-86
2023/04/14 11:55:28;;;;;;;1.80;0.93;;;14.90;99.90;;;;;;4974167;28;20035;-86
2023/04/14 11:57:55;;;;;;;2.08;1.15;;;14.80;99.90;;;;;;4974601;28;20479;-87
2023/04/14 12:00:21;;;;;;;0.90;0.60;;;14.70;99.90;;;;;;4974256;28;20038;-86
2023/04/14 12:02:47;;;;;;;0.77;0.60;;;15.00;99.90;;;;;;4974333;28;20023;-87
2023/04/14 12:05:24;;;;;;;0.75;0.70;;;15.40;99.90;;;;;;4974326;28;20585;-86
2023/04/14 12:07:56;;;;;;;0.98;0.70;;;15.50;99.90;;;;;;4973548;28;20026;-87
2023/04/14 12:10:22;;;;;;;0.80;0.80;;;15.70;99.90;;;;;;4974246;28;20391;-86
2023/04/14 12:12:48;;;;;;;0.98;0.80;;;16.10;99.90;;;;;;4974091;28;20023;-87
2023/04/14 12:15:13;;;;;;;1.67;0.90;;;16.50;99.90;;;;;;4974149;28;20026;-86
2023/04/14 12:17:40;;;;;;;0.70;0.60;;;17.10;99.90;;;;;;4974384;28;20034;-86
2023/04/14 12:20:13;;;;;;;1.02;0.65;;;17.90;99.90;;;;;;4974168;28;20077;-86
2023/04/14 12:22:38;;;;;;;0.40;0.40;;;17.30;99.90;;;;;;4973523;28;20037;-87
2023/04/14 12:25:10;;;;;;;0.40;0.40;;;16.30;99.90;;;;;;4973850;28;20046;-87
2023/04/14 12:27:36;;;;;;;1.00;0.68;;;16.10;99.90;;;;;;4974094;28;20027;-86
2023/04/14 12:30:04;;;;;;;0.50;0.35;;;16.40;99.90;;;;;;4974130;28;20116;-87
2023/04/14 12:32:39;;;;;;;0.77;0.40;;;16.50;99.90;;;;;;4973973;28;20023;-87
2023/04/14 12:35:05;;;;;;;2.13;0.40;;;16.50;99.90;;;;;;4973898;28;20045;-87
2023/04/14 12:37:33;;;;;;;1.60;0.40;;;15.90;99.90;;;;;;4974016;28;20538;-87
2023/04/14 12:40:00;;;;;;;0.60;0.60;;;15.30;99.90;;;;;;4972563;28;20542;-86
2023/04/14 12:42:27;;;;;;;2.08;0.77;;;15.50;99.90;;;;;;4973671;28;20038;-86
2023/04/14 12:44:56;;;;;;;0.73;0.60;;;15.70;99.90;;;;;;4974258;28;20419;-87
2023/04/14 12:47:34;;;;;;;0.40;0.40;;;15.90;99.90;;;;;;4970516;28;20035;-86
2023/04/14 12:50:20;;;;;;;2.53;0.40;;;16.10;99.90;;;;;;4954723;29;20065;-86
2023/04/14 12:52:46;;;;;;;0.77;0.50;;;15.90;99.90;;;;;;4953917;29;20031;-86
2023/04/14 12:55:23;;;;;;;0.80;0.50;;;16.00;99.90;;;;;;4954472;29;20042;-86
2023/04/14 12:57:55;;;;;;;0.30;0.30;;;15.90;99.90;;;;;;4954493;29;20036;-87
2023/04/14 13:00:22;;;;;;;0.40;0.30;;;15.60;99.90;;;;;;4954287;29;20061;-87
2023/04/14 13:02:49;;;;;;;0.40;0.40;;;15.60;99.90;;;;;;4952942;29;20020;-86
2023/04/14 13:05:15;;;;;;;1.58;0.30;;;15.70;99.90;;;;;;4954264;28;20047;-86